Time;durP1;ratioP1;P1;durP2;ratioP2;P2;SDS_P1;SDS_P2;PMS_P1;PMS_P2;Temp;Humidity;BMP_temperature;BMP_pressure;BME280_temperature;BME280_humidity;BME280_pressure;Samples;Min_cycle;Max_cycle;Signal;HPM_P1;HPM_P2
2022/10/29 00:01:09;;;;;;;;;;;9.50;99.90;;;;;;5054572;28;19959;-72
2022/10/29 00:03:35;;;;;;;;;;;9.50;99.90;;;;;;5035925;28;19913;-71
2022/10/29 00:06:03;;;;;;;;;;;9.50;99.90;;;;;;5053915;28;19940;-71
2022/10/29 00:08:29;;;;;;;;;;;9.60;99.90;;;;;;5053891;28;19909;-72
2022/10/29 00:10:55;;;;;;;;;;;9.50;99.90;;;;;;5054133;28;19908;-72
2022/10/29 00:13:21;;;;;;;;;;;9.50;99.90;;;;;;5052635;28;19942;-72
2022/10/29 00:15:46;;;;;;;;;;;9.60;99.90;;;;;;5053803;28;19913;-72
2022/10/29 00:18:12;;;;;;;;;;;9.50;99.90;;;;;;5053771;28;19909;-71
2022/10/29 00:20:37;;;;;;;;;;;9.50;99.90;;;;;;5053978;28;19920;-72
2022/10/29 00:23:03;;;;;;;;;;;9.60;99.90;;;;;;5053647;28;19919;-71
2022/10/29 00:25:28;;;;;;;;;;;9.60;99.90;;;;;;5053889;28;19920;-72
2022/10/29 00:27:57;;;;;;;;;;;9.50;99.90;;;;;;5053662;28;19916;-72
2022/10/29 00:30:22;;;;;;;;;;;9.50;99.90;;;;;;5053604;28;19909;-72
2022/10/29 00:32:48;;;;;;;;;;;9.50;99.90;;;;;;5053242;28;19971;-71
2022/10/29 00:35:13;;;;;;;;;;;9.60;99.90;;;;;;5053568;28;20331;-72
2022/10/29 00:37:39;;;;;;;;;;;9.60;99.90;;;;;;5054026;28;20307;-72
2022/10/29 00:40:05;;;;;;;;;;;9.50;99.90;;;;;;5053565;28;19913;-72
2022/10/29 00:42:31;;;;;;;;;;;9.50;99.90;;;;;;5053429;28;19913;-71
2022/10/29 00:44:56;;;;;;;;;;;9.50;99.90;;;;;;5054012;28;19913;-71
2022/10/29 00:47:22;;;;;;;;;;;9.50;99.90;;;;;;5053865;28;19917;-71
2022/10/29 00:50:08;;;;;;;;;;;9.40;99.90;;;;;;5053184;28;19909;-71
2022/10/29 00:52:37;;;;;;;;;;;9.40;99.90;;;;;;5053444;28;20297;-71
2022/10/29 00:55:04;;;;;;;;;;;9.40;99.90;;;;;;5053914;28;19928;-72
2022/10/29 00:57:34;;;;;;;;;;;9.40;99.90;;;;;;5053607;28;19909;-72
2022/10/29 01:00:00;;;;;;;;;;;9.40;99.90;;;;;;5053591;28;19915;-72
2022/10/29 01:02:26;;;;;;;;;;;9.40;99.90;;;;;;5053277;28;19915;-71
2022/10/29 01:04:52;;;;;;;;;;;9.30;99.90;;;;;;5053006;28;19913;-71
2022/10/29 01:07:19;;;;;;;;;;;9.40;99.90;;;;;;5053156;28;19924;-72
2022/10/29 01:09:44;;;;;;;;;;;9.30;99.90;;;;;;5053219;28;19913;-71
2022/10/29 01:12:16;;;;;;;;;;;9.30;99.90;;;;;;5053119;28;20015;-72
2022/10/29 01:14:56;;;;;;;;;;;9.30;99.90;;;;;;5053211;28;19909;-72
2022/10/29 01:17:22;;;;;;;;;;;9.20;99.90;;;;;;5035264;28;19996;-72
2022/10/29 01:20:05;;;;;;;;;;;9.20;99.90;;;;;;5052865;28;19955;-71
2022/10/29 01:22:38;;;;;;;;;;;9.10;99.90;;;;;;5053014;28;19908;-72
2022/10/29 01:25:09;;;;;;;;;;;9.10;99.90;;;;;;5056639;28;19909;-72
2022/10/29 01:27:42;;;;;;;;;;;9.10;99.90;;;;;;5056902;28;20292;-72
2022/10/29 01:30:11;;;;;;;;;;;9.10;99.90;;;;;;5056882;28;19909;-72
2022/10/29 01:32:55;;;;;;;;;;;9.10;99.90;;;;;;5056795;28;19909;-72
2022/10/29 01:35:29;;;;;;;;;;;9.00;99.90;;;;;;5056776;28;19909;-72
2022/10/29 01:37:58;;;;;;;;;;;9.00;99.90;;;;;;5056749;28;20000;-72
2022/10/29 01:40:29;;;;;;;;;;;9.00;99.90;;;;;;5056748;28;20039;-72
2022/10/29 01:43:07;;;;;;;;;;;9.00;99.90;;;;;;5056558;28;20003;-71
2022/10/29 01:45:35;;;;;;;;;;;9.00;99.90;;;;;;5056549;28;20375;-72
2022/10/29 01:48:07;;;;;;;;;;;9.00;99.90;;;;;;5056815;28;19909;-71
2022/10/29 01:50:34;;;;;;;;;;;8.90;99.90;;;;;;5056489;28;20000;-72
2022/10/29 01:53:02;;;;;;;;;;;8.90;99.90;;;;;;5056387;28;19963;-71
2022/10/29 01:55:28;;;;;;;;;;;8.80;99.90;;;;;;5056724;28;20357;-72
2022/10/29 01:57:54;;;;;;;;;;;8.80;99.90;;;;;;5056366;28;19963;-72
2022/10/29 02:00:20;;;;;;;;;;;8.80;99.90;;;;;;5056615;28;19913;-72
2022/10/29 02:03:12;;;;;;;;;;;8.70;99.90;;;;;;5056224;28;19935;-71
2022/10/29 02:05:46;;;;;;;;;;;8.60;99.90;;;;;;5032697;28;19909;-72
2022/10/29 02:08:18;;;;;;;;;;;8.60;99.90;;;;;;5056711;28;19912;-72
2022/10/29 02:11:13;;;;;;;;;;;8.60;99.90;;;;;;5056162;28;19909;-72
2022/10/29 02:13:45;;;;;;;;;;;8.60;99.90;;;;;;5026958;28;19917;-72
2022/10/29 02:16:11;;;;;;;;;;;8.60;99.90;;;;;;5018431;28;19909;-72
2022/10/29 02:18:42;;;;;;;;;;;8.60;99.90;;;;;;5035365;28;20496;-71
2022/10/29 02:21:08;;;;;;;;;;;8.50;99.90;;;;;;5036019;28;19909;-72
2022/10/29 02:23:33;;;;;;;;;;;8.50;99.90;;;;;;5036008;28;20004;-72
2022/10/29 02:25:59;;;;;;;;;;;8.50;99.90;;;;;;5035869;28;19913;-72
2022/10/29 02:28:24;;;;;;;;;;;8.50;99.90;;;;;;5035953;28;19917;-72
2022/10/29 02:30:50;;;;;;;;;;;8.50;99.90;;;;;;5036122;28;20004;-72
2022/10/29 02:33:15;;;;;;;;;;;8.40;99.90;;;;;;5035551;28;19984;-71
2022/10/29 02:35:41;;;;;;;;;;;8.40;99.90;;;;;;5017268;28;19920;-72
2022/10/29 02:38:06;;;;;;;;;;;8.40;99.90;;;;;;5035780;28;19921;-72
2022/10/29 02:40:32;;;;;;;;;;;8.30;99.90;;;;;;5035980;28;19913;-72
2022/10/29 02:42:57;;;;;;;;;;;8.30;99.90;;;;;;5049430;28;19915;-71
2022/10/29 02:45:23;;;;;;;;;;;8.30;99.90;;;;;;5037711;28;19913;-72
2022/10/29 02:47:48;;;;;;;;;;;8.30;99.90;;;;;;5055640;28;19952;-72
2022/10/29 02:50:14;;;;;;;;;;;8.30;99.90;;;;;;5055247;28;20005;-71
2022/10/29 02:52:39;;;;;;;;;;;8.30;99.90;;;;;;5055619;28;19908;-71
2022/10/29 02:55:05;;;;;;;;;;;8.30;99.90;;;;;;5055584;28;19925;-72
2022/10/29 02:57:31;;;;;;;;;;;8.30;99.90;;;;;;5055285;28;19913;-72
2022/10/29 02:59:56;;;;;;;;;;;8.30;99.90;;;;;;5037496;28;19913;-72
2022/10/29 03:02:22;;;;;;;;;;;8.30;99.90;;;;;;5055337;28;19920;-71
2022/10/29 03:04:47;;;;;;;;;;;8.20;99.90;;;;;;5037131;28;19936;-71
2022/10/29 03:07:13;;;;;;;;;;;8.20;99.90;;;;;;5055027;28;20276;-72
2022/10/29 03:09:38;;;;;;;;;;;8.20;99.90;;;;;;5055335;28;19913;-72
2022/10/29 03:12:04;;;;;;;;;;;8.10;99.90;;;;;;5054751;28;19925;-72
2022/10/29 03:14:30;;;;;;;;;;;8.10;99.90;;;;;;5054991;28;20356;-72
2022/10/29 03:16:55;;;;;;;;;;;8.10;99.90;;;;;;5055206;28;19913;-72
2022/10/29 03:19:21;;;;;;;;;;;8.00;99.90;;;;;;5054886;28;19916;-72
2022/10/29 03:21:46;;;;;;;;;;;8.00;99.90;;;;;;5036880;28;19920;-71
2022/10/29 03:24:12;;;;;;;;;;;8.00;99.90;;;;;;5036837;28;19913;-72
2022/10/29 03:26:38;;;;;;;;;;;8.00;99.90;;;;;;5054660;28;19917;-72
2022/10/29 03:29:03;;;;;;;;;;;8.00;99.90;;;;;;5054932;28;19912;-72
2022/10/29 03:31:29;;;;;;;;;;;8.00;99.90;;;;;;5054632;28;19919;-72
2022/10/29 03:33:54;;;;;;;;;;;8.00;99.90;;;;;;5054675;28;19968;-71
2022/10/29 03:36:20;;;;;;;;;;;7.90;99.90;;;;;;5054817;28;19913;-72
2022/10/29 03:38:45;;;;;;;;;;;7.90;99.90;;;;;;5054465;28;19970;-72
2022/10/29 03:41:11;;;;;;;;;;;7.80;99.90;;;;;;5054714;28;19913;-72
2022/10/29 03:43:37;;;;;;;;;;;7.70;99.90;;;;;;5054288;28;19913;-72
2022/10/29 03:46:02;;;;;;;;;;;7.60;99.90;;;;;;5054066;28;19913;-72
2022/10/29 03:48:28;;;;;;;;;;;7.60;99.90;;;;;;5054048;28;20286;-74
2022/10/29 03:50:57;;;;;;;;;;;7.60;99.90;;;;;;5054527;28;19917;-75
2022/10/29 03:53:23;;;;;;;;;;;7.60;99.90;;;;;;5054364;28;19908;-72
2022/10/29 03:55:53;;;;;;;;;;;7.70;99.90;;;;;;5054189;28;20015;-72
2022/10/29 03:58:18;;;;;;;;;;;7.70;99.90;;;;;;5054115;28;19959;-72
2022/10/29 04:00:51;;;;;;;;;;;7.70;99.90;;;;;;5054032;28;20316;-72
2022/10/29 04:03:17;;;;;;;;;;;7.70;99.90;;;;;;5054279;28;20268;-71
2022/10/29 04:05:42;;;;;;;;;;;7.70;99.90;;;;;;5036431;28;19919;-72
2022/10/29 04:08:08;;;;;;;;;;;7.70;99.90;;;;;;5054210;28;20000;-72
2022/10/29 04:10:33;;;;;;;;;;;7.70;99.90;;;;;;5054203;28;20378;-72
2022/10/29 04:12:59;;;;;;;;;;;7.70;99.90;;;;;;5054321;28;20441;-72
2022/10/29 04:15:24;;;;;;;;;;;7.70;99.90;;;;;;5053861;28;19955;-72
2022/10/29 04:17:50;;;;;;;;;;;7.60;99.90;;;;;;5054143;28;19913;-72
2022/10/29 04:20:16;;;;;;;;;;;7.60;99.90;;;;;;5053599;28;19948;-72
2022/10/29 04:22:41;;;;;;;;;;;7.60;99.90;;;;;;5053710;28;19995;-72
2022/10/29 04:25:07;;;;;;;;;;;7.50;99.90;;;;;;5053763;28;19967;-72
2022/10/29 04:27:33;;;;;;;;;;;7.50;99.90;;;;;;5053571;28;20313;-72
2022/10/29 04:29:58;;;;;;;;;;;7.50;99.90;;;;;;5035738;28;20009;-72
2022/10/29 04:32:24;;;;;;;;;;;7.50;99.90;;;;;;5053523;28;19917;-72
2022/10/29 04:34:49;;;;;;;;;;;7.40;99.90;;;;;;5053338;28;19913;-72
2022/10/29 04:37:15;;;;;;;;;;;7.40;99.90;;;;;;5035681;28;19919;-73
2022/10/29 04:39:40;;;;;;;;;;;7.30;99.90;;;;;;5053510;28;19962;-73
2022/10/29 04:42:06;;;;;;;;;;;7.30;99.90;;;;;;5053391;28;19909;-72
2022/10/29 04:44:31;;;;;;;;;;;7.30;99.90;;;;;;5053508;28;19913;-73
2022/10/29 04:46:57;;;;;;;;;;;7.30;99.90;;;;;;5053398;28;19983;-73
2022/10/29 04:49:22;;;;;;;;;;;7.30;99.90;;;;;;5053158;28;19920;-72
2022/10/29 04:51:48;;;;;;;;;;;7.20;99.90;;;;;;5053364;28;20000;-72
2022/10/29 04:54:14;;;;;;;;;;;7.20;99.90;;;;;;5053329;28;20361;-72
2022/10/29 04:56:40;;;;;;;;;;;7.20;99.90;;;;;;5053361;28;19913;-72
2022/10/29 04:59:05;;;;;;;;;;;7.10;99.90;;;;;;5055066;28;20281;-72
2022/10/29 05:01:31;;;;;;;;;;;7.10;99.90;;;;;;5057754;28;19920;-73
2022/10/29 05:03:56;;;;;;;;;;;7.20;99.90;;;;;;5057193;28;19913;-72
2022/10/29 05:06:22;;;;;;;;;;;7.10;99.90;;;;;;5057568;28;19917;-73
2022/10/29 05:08:47;;;;;;;;;;;7.10;99.90;;;;;;5057319;28;19912;-73
2022/10/29 05:11:13;;;;;;;;;;;7.10;99.90;;;;;;5057530;28;20376;-72
2022/10/29 05:13:39;;;;;;;;;;;7.10;99.90;;;;;;5057091;28;19925;-73
2022/10/29 05:16:04;;;;;;;;;;;7.10;99.90;;;;;;5057512;28;19917;-72
2022/10/29 05:18:30;;;;;;;;;;;7.10;99.90;;;;;;5057454;28;19917;-72
2022/10/29 05:20:56;;;;;;;;;;;7.10;99.90;;;;;;5057698;28;20369;-73
2022/10/29 05:23:21;;;;;;;;;;;7.10;99.90;;;;;;5057264;28;20311;-72
2022/10/29 05:25:47;;;;;;;;;;;7.10;99.90;;;;;;5057018;28;19952;-73
2022/10/29 05:28:14;;;;;;;;;;;7.10;99.90;;;;;;5057287;28;20043;-72
2022/10/29 05:30:40;;;;;;;;;;;7.10;99.90;;;;;;5056969;28;19909;-72
2022/10/29 05:33:06;;;;;;;;;;;7.10;99.90;;;;;;5056789;28;20364;-72
2022/10/29 05:35:32;;;;;;;;;;;7.10;99.90;;;;;;5056640;28;19916;-72
2022/10/29 05:37:59;;;;;;;;;;;7.10;99.90;;;;;;5056787;28;19912;-73
2022/10/29 05:40:24;;;;;;;;;;;7.10;99.90;;;;;;5056753;28;20015;-73
2022/10/29 05:42:50;;;;;;;;;;;7.10;99.90;;;;;;5056854;28;19956;-72
2022/10/29 05:45:16;;;;;;;;;;;7.10;99.90;;;;;;5057233;28;19916;-73
2022/10/29 05:47:42;;;;;;;;;;;7.10;99.90;;;;;;5056533;28;19913;-72
2022/10/29 05:50:08;;;;;;;;;;;7.10;99.90;;;;;;5056295;28;20003;-72
2022/10/29 05:52:33;;;;;;;;;;;7.10;99.90;;;;;;5056440;28;19994;-72
2022/10/29 05:54:59;;;;;;;;;;;7.10;99.90;;;;;;5056480;28;19913;-73
2022/10/29 05:57:24;;;;;;;;;;;7.10;99.90;;;;;;5056698;28;19917;-73
2022/10/29 05:59:50;;;;;;;;;;;7.10;99.90;;;;;;5056390;28;19915;-72
2022/10/29 06:02:15;;;;;;;;;;;6.90;99.90;;;;;;5056319;28;19913;-72
2022/10/29 06:04:41;;;;;;;;;;;6.90;99.90;;;;;;5056097;28;20020;-72
2022/10/29 06:07:06;;;;;;;;;;;6.80;99.90;;;;;;5056447;28;19917;-73
2022/10/29 06:09:32;;;;;;;;;;;6.80;99.90;;;;;;5056111;28;19919;-73
2022/10/29 06:11:58;;;;;;;;;;;6.80;99.90;;;;;;5055935;28;20030;-73
2022/10/29 06:14:23;;;;;;;;;;;6.80;99.90;;;;;;5056174;28;19959;-73
2022/10/29 06:16:49;;;;;;;;;;;6.90;99.90;;;;;;5056433;28;19919;-72
2022/10/29 06:19:14;;;;;;;;;;;6.90;99.90;;;;;;5056082;28;20062;-71
2022/10/29 06:21:40;;;;;;;;;;;6.90;99.90;;;;;;5056003;28;19913;-72
2022/10/29 06:24:06;;;;;;;;;;;6.90;99.90;;;;;;5056233;28;19909;-72
2022/10/29 06:26:32;;;;;;;;;;;7.00;99.90;;;;;;5038302;28;20384;-73
2022/10/29 06:28:58;;;;;;;;;;;7.00;99.90;;;;;;5055859;28;19916;-73
2022/10/29 06:31:24;;;;;;;;;;;7.00;99.90;;;;;;5055815;28;19913;-73
2022/10/29 06:33:49;;;;;;;;;;;7.00;99.90;;;;;;5055416;28;19920;-71
2022/10/29 06:36:15;;;;;;;;;;;7.10;99.90;;;;;;5055722;28;19913;-73
2022/10/29 06:38:40;;;;;;;;;;;7.10;99.90;;;;;;5055658;28;19919;-72
2022/10/29 06:41:06;;;;;;;;;;;7.10;99.90;;;;;;5037683;28;19920;-72
2022/10/29 06:43:31;;;;;;;;;;;7.20;99.90;;;;;;5055371;28;19963;-72
2022/10/29 06:45:57;;;;;;;;;;;7.20;99.90;;;;;;5055379;28;19913;-72
2022/10/29 06:48:22;;;;;;;;;;;7.20;99.90;;;;;;5055436;28;19962;-72
2022/10/29 06:50:48;;;;;;;;;;;7.20;99.90;;;;;;5055103;28;19913;-72
2022/10/29 06:53:15;;;;;;;;;;;7.30;99.90;;;;;;5055285;28;20361;-72
2022/10/29 06:55:40;;;;;;;;;;;7.30;99.90;;;;;;5055238;28;19909;-73
2022/10/29 06:58:13;;;;;;;;;;;7.40;99.90;;;;;;5055488;28;19909;-72
2022/10/29 07:00:39;;;;;;;;;;;7.50;99.90;;;;;;5055178;28;20014;-72
2022/10/29 07:03:06;;;;;;;;;;;7.50;99.90;;;;;;5055090;28;19913;-72
2022/10/29 07:05:32;;;;;;;;;;;7.60;99.90;;;;;;5054869;28;19915;-73
2022/10/29 07:07:58;;;;;;;;;;;7.60;99.90;;;;;;5055272;28;20327;-73
2022/10/29 07:10:24;;;;;;;;;;;7.70;99.90;;;;;;5055218;28;19909;-73
2022/10/29 07:12:50;;;;;;;;;;;7.70;99.90;;;;;;5054723;28;19921;-72
2022/10/29 07:15:15;;;;;;;;;;;7.80;99.90;;;;;;5054864;28;19978;-72
2022/10/29 07:17:41;;;;;;;;;;;7.90;99.90;;;;;;5054849;28;19982;-73
2022/10/29 07:20:07;;;;;;;;;;;7.90;99.90;;;;;;5054696;28;20004;-72
2022/10/29 07:22:33;;;;;;;;;;;8.00;99.90;;;;;;5054158;28;20341;-72
2022/10/29 07:24:59;;;;;;;;;;;8.00;99.90;;;;;;5054760;28;19947;-73
2022/10/29 07:27:24;;;;;;;;;;;8.10;99.90;;;;;;5054628;28;19921;-72
2022/10/29 07:29:50;;;;;;;;;;;8.20;99.90;;;;;;5054888;28;20016;-72
2022/10/29 07:32:15;;;;;;;;;;;8.20;99.90;;;;;;5054837;28;19909;-72
2022/10/29 07:34:41;;;;;;;;;;;8.30;99.90;;;;;;5054341;28;19912;-71
2022/10/29 07:37:06;;;;;;;;;;;8.40;99.90;;;;;;5055063;28;20381;-72
2022/10/29 07:39:32;;;;;;;;;;;8.50;99.90;;;;;;5054445;28;19916;-72
2022/10/29 07:41:57;;;;;;;;;;;8.60;99.90;;;;;;5054763;28;19908;-71
2022/10/29 07:44:23;;;;;;;;;;;8.70;99.90;;;;;;5054583;28;20353;-72
2022/10/29 07:46:48;;;;;;;;;;;8.80;99.90;;;;;;5054244;28;20377;-72
2022/10/29 07:49:14;;;;;;;;;;;9.00;99.90;;;;;;5036189;28;19966;-71
2022/10/29 07:51:39;;;;;;;;;;;9.00;99.90;;;;;;5054517;28;19966;-71
2022/10/29 07:54:05;;;;;;;;;;;9.10;99.90;;;;;;5054264;28;19920;-72
2022/10/29 07:56:31;;;;;;;;;;;9.20;99.90;;;;;;5053031;28;20357;-71
2022/10/29 07:58:56;;;;;;;;;;;9.20;99.90;;;;;;5054515;28;19963;-72
2022/10/29 08:01:22;;;;;;;;;;;9.30;99.90;;;;;;5054154;28;19963;-72
2022/10/29 08:03:50;;;;;;;;;;;9.30;99.90;;;;;;5054087;28;20343;-72
2022/10/29 08:06:16;;;;;;;;;;;9.40;99.90;;;;;;5036311;28;20001;-72
2022/10/29 08:08:42;;;;;;;;;;;9.40;99.90;;;;;;5054922;28;20328;-72
2022/10/29 08:11:07;;;;;;;;;;;9.50;99.90;;;;;;5053941;28;20016;-71
2022/10/29 08:13:33;;;;;;;;;;;9.60;99.90;;;;;;5053779;28;19921;-72
2022/10/29 08:15:58;;;;;;;;;;;9.70;99.90;;;;;;5054201;28;19958;-72
2022/10/29 08:18:24;;;;;;;;;;;9.80;99.90;;;;;;5053836;28;19977;-72
2022/10/29 08:20:49;;;;;;;;;;;9.90;99.90;;;;;;5053766;28;19916;-72
2022/10/29 08:23:15;;;;;;;;;;;10.00;99.90;;;;;;5053707;28;19922;-72
2022/10/29 08:25:41;;;;;;;;;;;10.10;99.90;;;;;;5053436;28;19913;-70
2022/10/29 08:28:16;;;;;;;;;;;10.20;99.90;;;;;;5053649;28;19913;-72
2022/10/29 08:30:44;;;;;;;;;;;10.30;99.90;;;;;;5053943;28;20003;-72
2022/10/29 08:33:10;;;;;;;;;;;10.40;99.90;;;;;;5035173;28;19908;-72
2022/10/29 08:35:35;;;;;;;;;;;10.50;99.90;;;;;;5054231;28;20279;-72
2022/10/29 08:38:01;;;;;;;;;;;10.60;99.90;;;;;;5053621;28;19909;-72
2022/10/29 08:40:27;;;;;;;;;;;10.80;99.90;;;;;;5035638;28;19944;-72
2022/10/29 08:43:11;;;;;;;;;;;10.90;99.90;;;;;;5053152;28;19920;-72
2022/10/29 08:45:44;;;;;;;;;;;11.00;99.90;;;;;;5053392;28;19909;-72
2022/10/29 08:48:12;;;;;;;;;;;11.10;99.90;;;;;;5053677;28;19913;-72
2022/10/29 08:50:41;;;;;;;;;;;11.30;99.90;;;;;;5053423;28;19915;-72
2022/10/29 08:53:15;;;;;;;;;;;11.40;99.90;;;;;;5053967;28;20320;-72
2022/10/29 08:55:41;;;;;;;;;;;11.50;99.90;;;;;;5035457;28;19952;-72
2022/10/29 08:58:15;;;;;;;;;;;11.60;99.90;;;;;;5035210;28;20373;-72
2022/10/29 09:00:41;;;;;;;;;;;11.70;99.90;;;;;;5053987;28;19915;-72
2022/10/29 09:03:11;;;;;;;;;;;11.80;99.90;;;;;;5053540;28;19952;-71
2022/10/29 09:05:53;;;;;;;;;;;11.90;99.90;;;;;;5053288;28;19954;-72
2022/10/29 09:08:37;;;;;;;;;;;12.10;99.90;;;;;;5053566;28;19917;-72
2022/10/29 09:11:21;;;;;;;;;;;12.30;99.90;;;;;;5053269;28;19941;-70
2022/10/29 09:13:46;;;;;;;;;;;12.50;99.90;;;;;;5053177;28;19987;-71
2022/10/29 09:16:30;;;;;;;;;;;12.60;99.90;;;;;;5053718;28;20005;-71
2022/10/29 09:19:09;;;;;;;;;;;12.80;99.90;;;;;;5053513;28;20353;-71
2022/10/29 09:21:51;;;;;;;;;;;13.00;99.90;;;;;;5053053;28;19920;-71
2022/10/29 09:24:34;;;;;;;;;;;13.20;99.90;;;;;;5053491;28;19924;-71
2022/10/29 09:27:08;;;;;;;;;;;13.40;99.90;;;;;;5034852;28;19912;-70
2022/10/29 09:29:44;;;;;;;;;;;13.60;99.90;;;;;;5053128;28;19909;-71
2022/10/29 09:32:22;;;;;;;;;;;13.80;99.90;;;;;;5053310;28;19959;-71
2022/10/29 09:34:49;;;;;;;;;;;13.90;99.90;;;;;;5053304;28;19991;-71
2022/10/29 09:37:16;;;;;;;;;;;14.00;99.90;;;;;;5052979;28;19920;-71
2022/10/29 09:39:43;;;;;;;;;;;14.10;99.90;;;;;;5053271;28;19909;-70
2022/10/29 09:42:10;;;;;;;;;;;14.20;99.90;;;;;;5052823;28;20384;-70
2022/10/29 09:44:39;;;;;;;;;;;14.40;99.90;;;;;;5053761;28;20376;-71
2022/10/29 09:47:15;;;;;;;;;;;14.50;99.90;;;;;;5056594;28;19917;-71
2022/10/29 09:49:50;;;;;;;;;;;14.60;99.90;;;;;;5056697;28;19952;-70
2022/10/29 09:52:21;;;;;;;;;;;14.80;99.90;;;;;;5038617;28;19909;-70
2022/10/29 09:54:48;;;;;;;;;;;15.00;99.90;;;;;;5056553;28;19916;-71
2022/10/29 09:57:19;;;;;;;;;;;15.10;99.90;;;;;;5056328;28;19909;-70
2022/10/29 09:59:50;;;;;;;;;;;15.10;99.90;;;;;;5056757;28;19920;-71
2022/10/29 10:02:25;;;;;;;;;;;15.20;99.90;;;;;;5056324;28;20004;-71
2022/10/29 10:04:53;;;;;;;;;;;15.40;99.90;;;;;;5038574;28;20276;-72
2022/10/29 10:07:19;;;;;;;;;;;15.50;99.90;;;;;;5056257;28;20378;-71
2022/10/29 10:09:54;;;;;;;;;;;15.80;99.90;;;;;;5056528;28;19956;-71
2022/10/29 10:12:21;;;;;;;;;;;16.00;99.90;;;;;;5055891;28;19927;-71
2022/10/29 10:14:47;;;;;;;;;;;16.20;99.90;;;;;;5056491;28;19909;-72
2022/10/29 10:17:13;;;;;;;;;;;16.30;99.90;;;;;;5056069;28;19963;-72
2022/10/29 10:19:43;;;;;;;;;;;16.40;99.90;;;;;;5056001;28;19956;-72
2022/10/29 10:22:16;;;;;;;;;;;16.50;99.90;;;;;;5055982;28;19916;-71
2022/10/29 10:24:42;;;;;;;;;;;16.60;99.90;;;;;;5056565;28;19931;-73
2022/10/29 10:27:16;;;;;;;;;;;16.80;99.90;;;;;;5055609;28;19939;-72
2022/10/29 10:29:42;;;;;;;;;;;16.90;99.90;;;;;;5055885;28;19908;-72
2022/10/29 10:32:15;;;;;;;;;;;17.10;99.90;;;;;;5037889;28;19962;-72
2022/10/29 10:34:40;;;;;;;;;;;17.20;99.90;;;;;;5055791;28;19916;-72
2022/10/29 10:37:12;;;;;;;;;;;17.30;99.90;;;;;;5055750;28;19913;-72
2022/10/29 10:39:39;;;;;;;;;;;17.50;99.90;;;;;;5055991;28;20319;-72
2022/10/29 10:42:14;;;;;;;;;;;17.60;99.90;;;;;;5055421;28;19913;-72
2022/10/29 10:44:55;;;;;;;;;;;17.80;99.90;;;;;;5055894;28;19909;-72
2022/10/29 10:47:22;;;;;;;;;;;17.90;99.90;;;;;;5055788;28;20357;-72
2022/10/29 10:49:47;;;;;;;;;;;18.10;99.90;;;;;;5055510;28;19908;-72
2022/10/29 10:52:18;;;;;;;;;;;18.10;99.90;;;;;;5055641;28;19908;-72
2022/10/29 10:54:53;;;;;;;;;;;18.20;99.90;;;;;;5055454;28;19909;-72
2022/10/29 10:57:24;;;;;;;;;;;18.30;99.90;;;;;;5036344;28;19909;-72
2022/10/29 10:59:54;;;;;;;;;;;18.30;99.90;;;;;;5055326;28;19909;-72
2022/10/29 11:02:26;;;;;;;;;;;18.40;99.90;;;;;;5055227;28;20004;-72
2022/10/29 11:04:57;;;;;;;;;;;18.50;99.90;;;;;;5055333;28;19916;-72
2022/10/29 11:07:25;;;;;;;;;;;18.50;99.90;;;;;;5055194;28;19912;-72
2022/10/29 11:09:53;;;;;;;;;;;18.60;99.90;;;;;;5055386;28;20303;-72
2022/10/29 11:12:25;;;;;;;;;;;18.80;99.90;;;;;;5053533;28;19986;-71
2022/10/29 11:14:57;;;;;;;;;;;18.90;99.90;;;;;;5054858;28;19915;-71
2022/10/29 11:17:29;;;;;;;;;;;19.00;99.90;;;;;;5049338;28;19909;-71
2022/10/29 11:19:56;;;;;;;;;;;19.20;99.90;;;;;;5053673;28;19913;-71
2022/10/29 11:22:45;;;;;;;;;;;19.20;99.90;;;;;;5054615;28;19955;-71
2022/10/29 11:25:18;;;;;;;;;;;19.30;99.90;;;;;;5029110;28;19913;-71
2022/10/29 11:27:50;;;;;;;;;;;19.40;99.90;;;;;;5034444;28;20448;-70
2022/10/29 11:30:16;;;;;;;;;;;19.40;99.90;;;;;;5054746;28;19952;-71
2022/10/29 11:33:00;;;;;;;;;;;19.40;99.90;;;;;;5054776;28;20369;-71
2022/10/29 11:35:46;;;;;;;;;;;19.50;99.90;;;;;;5054679;28;19908;-71
2022/10/29 11:38:16;;;;;;;;;;;19.40;99.90;;;;;;5043878;28;19909;-72
2022/10/29 11:40:42;;;;;;;;;;;19.50;99.90;;;;;;5054813;28;19909;-72
2022/10/29 11:43:09;;;;;;;;;;;19.40;99.90;;;;;;5054171;28;19908;-72
2022/10/29 11:45:35;;;;;;;;;;;19.50;99.90;;;;;;5054449;28;19962;-72
2022/10/29 11:48:02;;;;;;;;;;;19.50;99.90;;;;;;5054382;28;19913;-72
2022/10/29 11:50:30;;;;;;;;;;;19.60;99.90;;;;;;5054397;28;19916;-72
2022/10/29 11:53:14;;;;;;;;;;;19.60;99.90;;;;;;5054386;28;20287;-71
2022/10/29 11:55:42;;;;;;;;;;;19.60;99.90;;;;;;5054188;28;19909;-71
2022/10/29 11:58:33;;;;;;;;;;;19.70;99.90;;;;;;5054045;28;19909;-71
2022/10/29 12:01:17;;;;;;;;;;;19.70;99.90;;;;;;5054155;28;20323;-72
2022/10/29 12:04:15;;;;;;;;;;;19.70;99.90;;;;;;5054130;28;19966;-71
2022/10/29 12:06:44;;;;;;;;;;;19.80;99.90;;;;;;5020528;28;19920;-72
2022/10/29 12:09:12;;;;;;;;;;;19.80;99.90;;;;;;5053815;28;19908;-72
2022/10/29 12:11:47;;;;;;;;;;;19.80;99.90;;;;;;5053529;28;20288;-71
2022/10/29 12:14:13;;;;;;;;;;;19.80;99.90;;;;;;5054277;28;19995;-71
2022/10/29 12:16:49;;;;;;;;;;;19.90;99.90;;;;;;5054320;28;19959;-68
2022/10/29 12:19:36;;;;;;;;;;;19.90;99.90;;;;;;5054123;28;19912;-68
2022/10/29 12:22:15;;;;;;;;;;;20.00;99.90;;;;;;5033487;28;19913;-68
2022/10/29 12:24:41;;;;;;;;;;;20.10;99.80;;;;;;5033712;28;19909;-68
2022/10/29 12:27:13;;;;;;;;;;;20.20;99.90;;;;;;5045873;28;19913;-69
2022/10/29 12:29:50;;;;;;;;;;;20.30;99.90;;;;;;5053709;28;19909;-68
2022/10/29 12:32:25;;;;;;;;;;;20.30;99.80;;;;;;5054136;28;19954;-68
2022/10/29 12:35:01;;;;;;;;;;;20.40;99.30;;;;;;5035808;28;19908;-68
2022/10/29 12:37:33;;;;;;;;;;;20.50;99.80;;;;;;5053569;28;20280;-68
2022/10/29 12:40:04;;;;;;;;;;;20.50;99.20;;;;;;5053606;28;19908;-68
2022/10/29 12:42:29;;;;;;;;;;;20.60;98.60;;;;;;5053331;28;20297;-68
2022/10/29 12:45:01;;;;;;;;;;;20.70;99.60;;;;;;5053583;28;19917;-69
2022/10/29 12:47:34;;;;;;;;;;;20.80;98.60;;;;;;5035513;28;20340;-69
2022/10/29 12:50:18;;;;;;;;;;;20.90;99.90;;;;;;5053464;28;19909;-69
2022/10/29 12:53:01;;;;;;;;;;;21.10;99.90;;;;;;5053570;28;20357;-69
2022/10/29 12:55:27;;;;;;;;;;;21.20;99.40;;;;;;5053991;28;19993;-69
2022/10/29 12:57:53;;;;;;;;;;;21.30;98.40;;;;;;5053084;28;20392;-68
2022/10/29 13:00:21;;;;;;;;;;;21.40;97.60;;;;;;5053447;28;19913;-68
2022/10/29 13:02:49;;;;;;;;;;;21.50;99.20;;;;;;5053309;28;19917;-68
2022/10/29 13:05:16;;;;;;;;;;;21.60;98.40;;;;;;5053337;28;19913;-68
2022/10/29 13:07:45;;;;;;;;;;;21.60;98.60;;;;;;5053198;28;20058;-68
2022/10/29 13:10:23;;;;;;;;;;;21.60;98.80;;;;;;5053302;28;20389;-68
2022/10/29 13:12:54;;;;;;;;;;;21.50;98.90;;;;;;5053028;28;19928;-68
2022/10/29 13:15:21;;;;;;;;;;;21.40;99.20;;;;;;5053220;28;19992;-68
2022/10/29 13:17:47;;;;;;;;;;;21.40;99.20;;;;;;5035466;28;19909;-68
2022/10/29 13:20:31;;;;;;;;;;;21.30;99.10;;;;;;5055426;28;20005;-68
2022/10/29 13:22:58;;;;;;;;;;;21.30;99.50;;;;;;5057173;28;19909;-68
2022/10/29 13:25:32;;;;;;;;;;;21.20;99.90;;;;;;5057206;28;19909;-68
2022/10/29 13:28:07;;;;;;;;;;;21.20;99.90;;;;;;5056771;28;19913;-68
2022/10/29 13:30:33;;;;;;;;;;;21.10;99.90;;;;;;5057050;28;20289;-68
2022/10/29 13:32:59;;;;;;;;;;;21.10;99.90;;;;;;5056829;28;19909;-69
2022/10/29 13:35:24;;;;;;;;;;;21.10;99.90;;;;;;5057023;28;19916;-70
2022/10/29 13:37:51;;;;;;;;;;;21.10;99.90;;;;;;5057103;28;20336;-68
2022/10/29 13:40:32;;;;;;;;;;;21.10;99.90;;;;;;5056820;28;19909;-68
2022/10/29 13:42:57;;;;;;;;;;;21.10;99.90;;;;;;5056425;28;19935;-68
2022/10/29 13:45:23;;;;;;;;;;;21.10;99.90;;;;;;5057052;28;20364;-68
2022/10/29 13:47:49;;;;;;;;;;;21.20;99.90;;;;;;5056705;28;20373;-69
2022/10/29 13:50:16;;;;;;;;;;;21.20;99.90;;;;;;5056712;28;19959;-68
2022/10/29 13:52:43;;;;;;;;;;;21.10;99.90;;;;;;5038563;28;19948;-69
2022/10/29 13:55:13;;;;;;;;;;;21.10;99.90;;;;;;5056772;28;19915;-69
2022/10/29 13:57:49;;;;;;;;;;;21.10;99.90;;;;;;5056416;28;19912;-69
2022/10/29 14:00:19;;;;;;;;;;;21.00;99.90;;;;;;5056764;28;19920;-70
2022/10/29 14:02:47;;;;;;;;;;;20.90;99.90;;;;;;5056331;28;19909;-69
2022/10/29 14:05:15;;;;;;;;;;;20.80;99.90;;;;;;5056964;28;19995;-70
2022/10/29 14:07:50;;;;;;;;;;;20.80;99.90;;;;;;5056194;28;19959;-69
2022/10/29 14:10:18;;;;;;;;;;;20.70;99.90;;;;;;5056212;28;19956;-69
2022/10/29 14:12:45;;;;;;;;;;;20.70;99.90;;;;;;5056181;28;19920;-69
2022/10/29 14:15:12;;;;;;;;;;;20.80;99.90;;;;;;5056133;28;19909;-69
2022/10/29 14:17:38;;;;;;;;;;;20.80;99.90;;;;;;5056495;28;19909;-69
2022/10/29 14:20:04;;;;;;;;;;;20.80;99.90;;;;;;5056098;28;19920;-69
2022/10/29 14:22:32;;;;;;;;;;;20.80;99.90;;;;;;5055914;28;19909;-70
2022/10/29 14:24:58;;;;;;;;;;;20.70;99.90;;;;;;5055968;28;19909;-69
2022/10/29 14:27:23;;;;;;;;;;;20.70;99.90;;;;;;5056518;28;19917;-69
2022/10/29 14:29:49;;;;;;;;;;;20.70;99.90;;;;;;5038112;28;20007;-69
2022/10/29 14:32:19;;;;;;;;;;;20.70;99.90;;;;;;5054413;28;20011;-69